Time;durP1;ratioP1;P1;durP2;ratioP2;P2;SDS_P1;SDS_P2;PMS_P1;PMS_P2;Temp;Humidity;BMP_temperature;BMP_pressure;BME280_temperature;BME280_humidity;BME280_pressure;Samples;Min_cycle;Max_cycle;Signal;HPM_P1;HPM_P2
2022/09/03 00:02:16;;;;;;;10.45;7.60;;;;;;;;;;4392006;32;20551;-84
2022/09/03 00:04:53;;;;;;;12.18;6.97;;;;;;;;;;4392770;32;20574;-83
2022/09/03 00:07:28;;;;;;;10.57;8.15;;;;;;;;;;4391648;32;20202;-84
2022/09/03 00:10:02;;;;;;;11.32;7.53;;;;;;;;;;4391808;32;20544;-83
2022/09/03 00:12:33;;;;;;;11.90;7.12;;;;;;;;;;4391745;32;20570;-84
2022/09/03 00:15:04;;;;;;;14.23;7.53;;;;;;;;;;4391434;32;20631;-84
2022/09/03 00:17:36;;;;;;;12.85;7.93;;;;;;;;;;4390998;32;20679;-83
2022/09/03 00:20:09;;;;;;;12.32;7.95;;;;;;;;;;4391603;32;20335;-84
2022/09/03 00:22:41;;;;;;;11.02;6.45;;;;;;;;;;4391184;32;20273;-86
2022/09/03 00:25:13;;;;;;;10.52;7.00;;;;;;;;;;4391826;32;20567;-84
2022/09/03 00:27:43;;;;;;;20.35;8.07;;;;;;;;;;4392621;32;20588;-83
2022/09/03 00:30:13;;;;;;;13.93;7.35;;;;;;;;;;4391583;32;20314;-84
2022/09/03 00:32:46;;;;;;;12.75;7.20;;;;;;;;;;4391359;32;20651;-83
2022/09/03 00:35:20;;;;;;;8.88;6.90;;;;;;;;;;4390770;32;20603;-83
2022/09/03 00:37:48;;;;;;;9.52;6.60;;;;;;;;;;4390672;32;20519;-84
2022/09/03 00:40:43;;;;;;;12.95;7.12;;;;;;;;;;4390266;32;20698;-83
2022/09/03 00:43:21;;;;;;;14.80;7.85;;;;;;;;;;4390434;32;20662;-83
2022/09/03 00:45:56;;;;;;;10.88;7.07;;;;;;;;;;4390144;32;20540;-83
2022/09/03 00:48:30;;;;;;;11.93;7.30;;;;;;;;;;4390125;32;20520;-90
2022/09/03 00:51:10;;;;;;;8.55;7.62;;;;;;;;;;4390798;32;20638;-90
2022/09/03 00:53:50;;;;;;;9.98;7.22;;;;;;;;;;4390942;32;20579;-83
2022/09/03 00:56:27;;;;;;;12.88;8.20;;;;;;;;;;4389732;32;20589;-84
2022/09/03 00:59:03;;;;;;;16.58;9.20;;;;;;;;;;4390031;32;20547;-83
2022/09/03 01:01:41;;;;;;;16.58;8.50;;;;;;;;;;4389776;32;20627;-83
2022/09/03 01:04:29;;;;;;;12.70;8.95;;;;;;;;;;4390015;32;20602;-83
2022/09/03 01:07:08;;;;;;;13.05;8.63;;;;;;;;;;4389603;32;20590;-83
2022/09/03 01:09:47;;;;;;;12.07;8.18;;;;;;;;;;4389761;32;20511;-83
2022/09/03 01:12:24;;;;;;;19.77;10.05;;;;;;;;;;4389508;32;20245;-85
2022/09/03 01:15:04;;;;;;;16.25;8.88;;;;;;;;;;4389969;32;20536;-83
2022/09/03 01:17:43;;;;;;;12.52;8.85;;;;;;;;;;4389921;32;20587;-83
2022/09/03 01:20:37;;;;;;;16.10;8.10;;;;;;;;;;4390403;32;20657;-83
2022/09/03 01:23:38;;;;;;;11.18;9.40;;;;;;;;;;4391460;32;20517;-84
2022/09/03 01:26:40;;;;;;;18.98;9.00;;;;;;;;;;4390065;32;20230;-83
2022/09/03 01:29:21;;;;;;;19.37;9.50;;;;;;;;;;4386200;32;20672;-83
2022/09/03 01:31:56;;;;;;;12.75;8.77;;;;;;;;;;4389690;32;20643;-90
2022/09/03 01:34:38;;;;;;;17.95;8.52;;;;;;;;;;4390416;32;20599;-90
2022/09/03 01:37:16;;;;;;;15.68;8.35;;;;;;;;;;4396067;32;20281;-82
2022/09/03 01:39:56;;;;;;;14.82;7.53;;;;;;;;;;4394805;32;20690;-83
2022/09/03 01:42:33;;;;;;;15.13;7.03;;;;;;;;;;4393287;32;20261;-82
2022/09/03 01:45:21;;;;;;;14.93;7.85;;;;;;;;;;4389924;32;20610;-83
2022/09/03 01:48:01;;;;;;;13.75;6.10;;;;;;;;;;4389732;32;20501;-83
2022/09/03 01:50:39;;;;;;;8.07;6.25;;;;;;;;;;4389566;32;20596;-82
2022/09/03 01:53:20;;;;;;;11.50;7.50;;;;;;;;;;4389538;32;20626;-83
2022/09/03 01:56:04;;;;;;;12.63;6.87;;;;;;;;;;4388879;32;20539;-83
2022/09/03 01:58:37;;;;;;;7.82;6.70;;;;;;;;;;4389537;32;20524;-82
2022/09/03 02:01:13;;;;;;;8.55;6.90;;;;;;;;;;4388958;32;20543;-82
2022/09/03 02:03:44;;;;;;;11.18;7.10;;;;;;;;;;4389481;32;20645;-83
2022/09/03 02:06:12;;;;;;;9.43;6.90;;;;;;;;;;4388983;32;20279;-82
2022/09/03 02:08:40;;;;;;;10.07;6.47;;;;;;;;;;4389006;32;20296;-82
2022/09/03 02:11:10;;;;;;;7.43;6.50;;;;;;;;;;4388987;32;20570;-84
2022/09/03 02:13:41;;;;;;;8.30;6.47;;;;;;;;;;4388521;32;20556;-83
2022/09/03 02:16:14;;;;;;;7.97;6.85;;;;;;;;;;4389003;32;20234;-85
2022/09/03 02:18:46;;;;;;;8.88;6.20;;;;;;;;;;4389044;32;20546;-82
2022/09/03 02:21:19;;;;;;;17.35;7.60;;;;;;;;;;4388791;32;20395;-83
2022/09/03 02:23:47;;;;;;;8.73;6.35;;;;;;;;;;4389186;32;20524;-83
2022/09/03 02:26:18;;;;;;;8.00;5.45;;;;;;;;;;4389067;32;20658;-82
2022/09/03 02:28:46;;;;;;;10.27;6.80;;;;;;;;;;4389117;32;20634;-82
2022/09/03 02:31:15;;;;;;;8.98;5.75;;;;;;;;;;4388645;32;20725;-82
2022/09/03 02:33:46;;;;;;;11.48;6.12;;;;;;;;;;4388847;32;20535;-82
2022/09/03 02:36:17;;;;;;;15.82;7.45;;;;;;;;;;4388733;32;20450;-82
2022/09/03 02:38:45;;;;;;;12.07;6.05;;;;;;;;;;4388692;32;20558;-82
2022/09/03 02:41:14;;;;;;;8.75;6.55;;;;;;;;;;4388816;32;20606;-83
2022/09/03 02:43:47;;;;;;;10.48;6.03;;;;;;;;;;4388708;32;20544;-82
2022/09/03 02:46:22;;;;;;;9.20;7.37;;;;;;;;;;4388743;32;20657;-82
2022/09/03 02:48:49;;;;;;;13.13;6.35;;;;;;;;;;4388779;32;20562;-82
2022/09/03 02:51:17;;;;;;;11.00;6.78;;;;;;;;;;4388464;32;20589;-83
2022/09/03 02:53:45;;;;;;;11.68;6.22;;;;;;;;;;4388476;32;20571;-82
2022/09/03 02:56:13;;;;;;;10.98;6.40;;;;;;;;;;4389660;32;20571;-83
2022/09/03 02:58:41;;;;;;;7.72;6.30;;;;;;;;;;4389774;32;20300;-83
2022/09/03 03:01:08;;;;;;;8.93;6.43;;;;;;;;;;4390581;32;20312;-83
2022/09/03 03:03:37;;;;;;;16.98;6.95;;;;;;;;;;4388915;32;20269;-83
2022/09/03 03:06:06;;;;;;;8.35;6.70;;;;;;;;;;4388677;32;20532;-83
2022/09/03 03:08:34;;;;;;;6.70;5.70;;;;;;;;;;4388495;32;20377;-82
2022/09/03 03:11:02;;;;;;;10.57;6.87;;;;;;;;;;4388767;32;20674;-82
2022/09/03 03:13:30;;;;;;;11.05;6.72;;;;;;;;;;4388548;32;20594;-82
2022/09/03 03:15:58;;;;;;;15.30;6.78;;;;;;;;;;4388578;32;20644;-82
2022/09/03 03:18:25;;;;;;;10.93;6.45;;;;;;;;;;4389430;32;20543;-89
2022/09/03 03:20:54;;;;;;;7.95;5.97;;;;;;;;;;4389103;32;20641;-82
2022/09/03 03:23:22;;;;;;;9.15;6.47;;;;;;;;;;4389086;32;20361;-83
2022/09/03 03:25:49;;;;;;;12.13;6.18;;;;;;;;;;4389225;32;20560;-83
2022/09/03 03:28:19;;;;;;;10.00;6.65;;;;;;;;;;4391660;32;20539;-83
2022/09/03 03:30:47;;;;;;;10.85;6.07;;;;;;;;;;4391359;32;20578;-83
2022/09/03 03:33:15;;;;;;;15.75;6.55;;;;;;;;;;4391378;32;20614;-82
2022/09/03 03:35:42;;;;;;;8.77;6.07;;;;;;;;;;4392053;32;20586;-89
2022/09/03 03:38:11;;;;;;;7.72;6.47;;;;;;;;;;4393559;32;20593;-89
2022/09/03 03:40:39;;;;;;;9.85;6.80;;;;;;;;;;4392007;32;20644;-90
2022/09/03 03:43:06;;;;;;;16.60;6.60;;;;;;;;;;4392666;32;20202;-83
2022/09/03 03:45:34;;;;;;;14.52;6.95;;;;;;;;;;4391150;32;20384;-84
2022/09/03 03:48:01;;;;;;;14.43;7.75;;;;;;;;;;4390826;32;20554;-86
2022/09/03 03:50:29;;;;;;;13.90;6.70;;;;;;;;;;4390853;32;20540;-83
2022/09/03 03:53:00;;;;;;;14.43;6.45;;;;;;;;;;4390690;32;20586;-85
2022/09/03 03:55:30;;;;;;;11.65;6.47;;;;;;;;;;4391195;32;20232;-83
2022/09/03 03:57:59;;;;;;;14.70;6.18;;;;;;;;;;4390946;32;20571;-83
2022/09/03 04:00:28;;;;;;;10.50;6.37;;;;;;;;;;4390737;32;20636;-85
2022/09/03 04:02:56;;;;;;;7.70;5.80;;;;;;;;;;4391075;32;20610;-84
2022/09/03 04:05:23;;;;;;;7.15;6.18;;;;;;;;;;4378433;32;20614;-91
2022/09/03 04:07:51;;;;;;;8.95;6.07;;;;;;;;;;4391099;32;20516;-84
2022/09/03 04:10:18;;;;;;;8.73;6.22;;;;;;;;;;4390939;32;20419;-86
2022/09/03 04:12:47;;;;;;;12.63;6.65;;;;;;;;;;4391462;32;20584;-84
2022/09/03 04:15:15;;;;;;;7.72;6.28;;;;;;;;;;4391014;32;20634;-83
2022/09/03 04:17:43;;;;;;;11.45;6.97;;;;;;;;;;4391185;32;20315;-82
2022/09/03 04:20:10;;;;;;;8.20;6.20;;;;;;;;;;4390656;32;20268;-82
2022/09/03 04:22:38;;;;;;;20.92;7.10;;;;;;;;;;4390664;32;20584;-83
2022/09/03 04:25:06;;;;;;;14.13;6.82;;;;;;;;;;4390901;32;20562;-83
2022/09/03 04:27:35;;;;;;;9.95;7.55;;;;;;;;;;4397356;32;20194;-85
2022/09/03 04:30:04;;;;;;;8.40;7.18;;;;;;;;;;4394010;32;20524;-84
2022/09/03 04:35:17;;;;;;;9.88;7.70;;;;;;;;;;4390994;32;20244;-83
2022/09/03 04:37:44;;;;;;;12.30;6.90;;;;;;;;;;4390520;32;20628;-82
2022/09/03 04:40:12;;;;;;;11.80;7.55;;;;;;;;;;4391014;32;20416;-83
2022/09/03 04:42:40;;;;;;;14.30;7.87;;;;;;;;;;4390293;32;20481;-84
2022/09/03 04:45:14;;;;;;;13.23;7.80;;;;;;;;;;4394304;32;20233;-84
2022/09/03 04:47:42;;;;;;;14.20;7.85;;;;;;;;;;4390986;32;20586;-83
2022/09/03 04:50:11;;;;;;;17.58;7.75;;;;;;;;;;4390222;32;20562;-85
2022/09/03 04:52:39;;;;;;;14.75;7.70;;;;;;;;;;4390190;32;20493;-83
2022/09/03 04:55:10;;;;;;;14.77;7.72;;;;;;;;;;4390714;32;20536;-84
2022/09/03 04:57:38;;;;;;;13.62;8.70;;;;;;;;;;4377339;32;20647;-84
2022/09/03 05:00:10;;;;;;;21.27;9.95;;;;;;;;;;4389956;32;20633;-83
2022/09/03 05:02:39;;;;;;;19.15;9.68;;;;;;;;;;4389996;32;20525;-83
2022/09/03 05:05:06;;;;;;;23.05;9.02;;;;;;;;;;4390117;32;20520;-83
2022/09/03 05:07:37;;;;;;;15.23;6.97;;;;;;;;;;4390051;32;20201;-84
2022/09/03 05:10:07;;;;;;;19.00;7.60;;;;;;;;;;4390112;32;20558;-84
2022/09/03 05:12:35;;;;;;;12.27;9.20;;;;;;;;;;4389851;32;20643;-83
2022/09/03 05:15:04;;;;;;;14.35;8.02;;;;;;;;;;4389359;32;20575;-82
2022/09/03 05:17:32;;;;;;;12.15;8.15;;;;;;;;;;4390279;32;20707;-83
2022/09/03 05:20:01;;;;;;;13.65;8.30;;;;;;;;;;4390532;32;20287;-83
2022/09/03 05:22:28;;;;;;;12.98;8.93;;;;;;;;;;4389919;32;20616;-83
2022/09/03 05:24:56;;;;;;;18.55;9.93;;;;;;;;;;4391178;32;20736;-90
2022/09/03 05:27:24;;;;;;;17.50;10.57;;;;;;;;;;4390944;32;20551;-83
2022/09/03 05:29:51;;;;;;;24.15;9.52;;;;;;;;;;4389757;32;20599;-84
2022/09/03 05:32:19;;;;;;;11.90;7.47;;;;;;;;;;4389713;32;20513;-87
2022/09/03 05:34:46;;;;;;;15.13;6.97;;;;;;;;;;4389845;32;20614;-82
2022/09/03 05:37:15;;;;;;;14.57;8.48;;;;;;;;;;4390082;32;20283;-93
2022/09/03 05:39:43;;;;;;;9.15;7.37;;;;;;;;;;4389294;32;20209;-80
2022/09/03 05:42:12;;;;;;;12.05;7.28;;;;;;;;;;4390300;32;20626;-82
2022/09/03 05:44:40;;;;;;;7.62;6.25;;;;;;;;;;4389986;32;20653;-86
2022/09/03 05:47:07;;;;;;;7.55;5.75;;;;;;;;;;4390265;32;20570;-84
2022/09/03 05:49:35;;;;;;;11.65;6.90;;;;;;;;;;4388843;32;20554;-83
2022/09/03 05:52:03;;;;;;;6.87;5.30;;;;;;;;;;4389536;32;20646;-84
2022/09/03 05:54:32;;;;;;;9.85;5.53;;;;;;;;;;4390074;32;20590;-84
2022/09/03 05:57:00;;;;;;;8.30;5.50;;;;;;;;;;4389797;32;20325;-84
2022/09/03 05:59:28;;;;;;;8.45;4.93;;;;;;;;;;4389621;32;20550;-83
2022/09/03 06:01:55;;;;;;;11.95;6.12;;;;;;;;;;4389408;32;20639;-84
2022/09/03 06:04:23;;;;;;;8.02;5.18;;;;;;;;;;4389323;32;20599;-84
2022/09/03 06:06:51;;;;;;;8.48;5.60;;;;;;;;;;4389577;32;20563;-85
2022/09/03 06:09:20;;;;;;;7.87;6.00;;;;;;;;;;4389488;32;20477;-84
2022/09/03 06:11:49;;;;;;;12.05;4.53;;;;;;;;;;4389628;32;20602;-85
2022/09/03 06:14:17;;;;;;;10.27;5.35;;;;;;;;;;4376957;32;20214;-84
2022/09/03 06:16:48;;;;;;;8.88;4.32;;;;;;;;;;4391559;32;20555;-84
2022/09/03 06:19:16;;;;;;;7.55;4.97;;;;;;;;;;4396566;32;20255;-83
2022/09/03 06:21:45;;;;;;;10.13;5.65;;;;;;;;;;4395173;32;20602;-84
2022/09/03 06:24:14;;;;;;;11.98;5.68;;;;;;;;;;4399012;32;20535;-84
2022/09/03 06:26:41;;;;;;;11.20;5.18;;;;;;;;;;4396561;32;20234;-87
2022/09/03 06:29:11;;;;;;;8.73;4.05;;;;;;;;;;4395620;32;20574;-89
2022/09/03 06:31:40;;;;;;;13.82;4.87;;;;;;;;;;4394718;32;20547;-87
2022/09/03 06:34:09;;;;;;;5.53;4.50;;;;;;;;;;4393011;32;20234;-85
2022/09/03 06:36:37;;;;;;;9.20;4.65;;;;;;;;;;4393541;32;20653;-86
2022/09/03 06:39:05;;;;;;;5.22;4.45;;;;;;;;;;4391170;32;20237;-85
2022/09/03 06:41:34;;;;;;;14.90;5.07;;;;;;;;;;4391769;32;20693;-85
2022/09/03 06:44:03;;;;;;;12.35;5.00;;;;;;;;;;4392060;32;20203;-86
2022/09/03 06:46:34;;;;;;;12.55;5.68;;;;;;;;;;4391037;32;20544;-85
2022/09/03 06:49:03;;;;;;;17.62;4.78;;;;;;;;;;4391250;32;20324;-85
2022/09/03 06:51:32;;;;;;;7.62;5.07;;;;;;;;;;4391173;32;20669;-85
2022/09/03 06:54:01;;;;;;;14.70;5.45;;;;;;;;;;4390574;32;20544;-85
2022/09/03 06:56:29;;;;;;;9.35;6.45;;;;;;;;;;4389596;32;20614;-85
2022/09/03 06:58:59;;;;;;;10.23;6.32;;;;;;;;;;4389420;32;20711;-86
2022/09/03 07:01:29;;;;;;;8.73;5.28;;;;;;;;;;4391600;32;20635;-85
2022/09/03 07:04:00;;;;;;;8.82;5.30;;;;;;;;;;4392427;32;20603;-85
2022/09/03 07:06:30;;;;;;;14.25;6.12;;;;;;;;;;4391565;32;20249;-85
2022/09/03 07:08:58;;;;;;;9.95;5.43;;;;;;;;;;4391732;32;20516;-85
2022/09/03 07:11:28;;;;;;;5.43;4.53;;;;;;;;;;4391794;32;20654;-84
2022/09/03 07:13:56;;;;;;;7.07;4.20;;;;;;;;;;4391693;32;20544;-83
2022/09/03 07:16:26;;;;;;;8.23;4.22;;;;;;;;;;4392772;32;20547;-86
2022/09/03 07:18:54;;;;;;;12.40;4.45;;;;;;;;;;4391640;32;20557;-86
2022/09/03 07:21:25;;;;;;;5.32;4.62;;;;;;;;;;4391547;32;20639;-88
2022/09/03 07:23:54;;;;;;;7.68;5.12;;;;;;;;;;4392771;32;20206;-88
2022/09/03 07:26:23;;;;;;;6.78;3.80;;;;;;;;;;4394050;32;20593;-88
2022/09/03 07:28:59;;;;;;;7.65;4.12;;;;;;;;;;4394815;32;20537;-89
2022/09/03 07:31:29;;;;;;;9.80;4.40;;;;;;;;;;4395311;32;20303;-87
2022/09/03 07:33:57;;;;;;;5.18;4.03;;;;;;;;;;4392473;32;20590;-88
2022/09/03 07:36:28;;;;;;;7.87;4.75;;;;;;;;;;4392460;32;20558;-90
2022/09/03 07:38:57;;;;;;;9.13;4.80;;;;;;;;;;4391838;32;20550;-89
2022/09/03 07:41:25;;;;;;;7.07;4.65;;;;;;;;;;4391567;32;20583;-89
2022/09/03 07:43:53;;;;;;;6.87;4.00;;;;;;;;;;4391967;32;20512;-89
2022/09/03 07:46:22;;;;;;;7.07;4.70;;;;;;;;;;4392562;32;20587;-89
2022/09/03 07:48:51;;;;;;;7.45;5.07;;;;;;;;;;4392273;32;20240;-89
2022/09/03 07:51:19;;;;;;;9.50;4.80;;;;;;;;;;4391238;32;20560;-89
2022/09/03 07:53:49;;;;;;;4.95;3.83;;;;;;;;;;4391667;32;20579;-92
2022/09/03 07:56:16;;;;;;;5.35;4.30;;;;;;;;;;4391917;32;20738;-90
2022/09/03 07:58:44;;;;;;;6.57;4.07;;;;;;;;;;4392358;32;20594;-89
2022/09/03 08:01:13;;;;;;;7.07;4.18;;;;;;;;;;4392222;32;20654;-89
2022/09/03 08:03:44;;;;;;;14.35;5.03;;;;;;;;;;4391399;32;20555;-89
2022/09/03 08:06:13;;;;;;;6.65;4.72;;;;;;;;;;4391859;32;20693;-89
2022/09/03 08:08:41;;;;;;;10.65;4.97;;;;;;;;;;4391263;32;20206;-84
2022/09/03 08:11:12;;;;;;;8.35;5.28;;;;;;;;;;4390559;32;20626;-84
2022/09/03 08:13:43;;;;;;;16.65;5.30;;;;;;;;;;4391069;32;20194;-93
2022/09/03 08:16:13;;;;;;;5.62;4.47;;;;;;;;;;4391597;32;20662;-85
2022/09/03 08:18:41;;;;;;;12.57;5.68;;;;;;;;;;4390762;32;20609;-85
2022/09/03 08:21:13;;;;;;;8.82;4.90;;;;;;;;;;4390587;32;20260;-84
2022/09/03 08:23:42;;;;;;;12.55;5.22;;;;;;;;;;4390620;32;20244;-83
2022/09/03 08:26:12;;;;;;;7.93;5.22;;;;;;;;;;4391341;32;20657;-95
2022/09/03 08:28:40;;;;;;;7.25;4.47;;;;;;;;;;4391869;32;20642;-94
2022/09/03 08:31:10;;;;;;;7.62;4.87;;;;;;;;;;4392673;32;20642;-92
2022/09/03 08:33:39;;;;;;;7.55;4.82;;;;;;;;;;4391462;32;20625;-84
2022/09/03 08:36:09;;;;;;;10.10;4.78;;;;;;;;;;4391687;32;20638;-83
2022/09/03 08:38:38;;;;;;;6.62;4.30;;;;;;;;;;4391502;32;20778;-84
2022/09/03 08:41:09;;;;;;;4.90;4.10;;;;;;;;;;4390902;32;20571;-84
2022/09/03 08:43:54;;;;;;;9.70;4.60;;;;;;;;;;4392350;32;20566;-89
2022/09/03 08:46:25;;;;;;;6.43;4.32;;;;;;;;;;4391656;32;20645;-89
2022/09/03 08:48:54;;;;;;;10.18;4.28;;;;;;;;;;4392354;32;20594;-89
2022/09/03 08:51:26;;;;;;;10.88;4.03;;;;;;;;;;4392264;32;20647;-88
2022/09/03 08:53:56;;;;;;;6.53;5.00;;;;;;;;;;4390624;32;20675;-89
2022/09/03 08:56:30;;;;;;;6.62;4.20;;;;;;;;;;4391353;32;20733;-90
2022/09/03 08:59:03;;;;;;;8.82;4.47;;;;;;;;;;4391929;32;20725;-93
2022/09/03 09:01:42;;;;;;;5.95;4.00;;;;;;;;;;4391273;32;20633;-93
2022/09/03 09:04:19;;;;;;;8.73;4.12;;;;;;;;;;4391913;32;20232;-88
2022/09/03 09:06:56;;;;;;;5.57;3.75;;;;;;;;;;4390984;32;20573;-89
2022/09/03 09:09:34;;;;;;;8.00;4.37;;;;;;;;;;4390956;32;20551;-90
2022/09/03 09:12:15;;;;;;;6.35;3.85;;;;;;;;;;4391810;32;20548;-94
2022/09/03 09:14:52;;;;;;;20.02;4.87;;;;;;;;;;4390991;32;20550;-92
2022/09/03 09:17:32;;;;;;;17.27;4.40;;;;;;;;;;4392833;32;20596;-91
2022/09/03 09:20:11;;;;;;;10.38;3.87;;;;;;;;;;4393130;32;20225;-93
2022/09/03 09:22:40;;;;;;;7.93;4.53;;;;;;;;;;4393159;32;20531;-93
2022/09/03 09:25:14;;;;;;;5.37;3.62;;;;;;;;;;4390529;32;20615;-92
2022/09/03 09:27:50;;;;;;;5.25;4.22;;;;;;;;;;4391594;32;20264;-94
2022/09/03 09:30:20;;;;;;;7.30;3.50;;;;;;;;;;4391250;32;20677;-94
2022/09/03 09:32:48;;;;;;;6.80;4.90;;;;;;;;;;4392229;32;20664;-94
2022/09/03 09:35:18;;;;;;;5.47;3.28;;;;;;;;;;4391522;32;20229;-95
2022/09/03 09:37:54;;;;;;;11.48;5.37;;;;;;;;;;4391334;32;20583;-96
2022/09/03 09:40:31;;;;;;;6.93;4.22;;;;;;;;;;4391145;32;20650;-94
2022/09/03 09:43:11;;;;;;;5.82;4.50;;;;;;;;;;4391164;32;20549;-95
2022/09/03 09:45:43;;;;;;;4.55;3.72;;;;;;;;;;4392108;32;20599;-92
2022/09/03 09:48:17;;;;;;;7.03;4.25;;;;;;;;;;4391064;32;20585;-93
2022/09/03 09:50:45;;;;;;;9.23;3.62;;;;;;;;;;4391574;32;20642;-96
2022/09/03 09:53:17;;;;;;;4.20;3.05;;;;;;;;;;4393169;32;20657;-93
2022/09/03 09:55:56;;;;;;;5.87;3.55;;;;;;;;;;4390598;32;20567;-95
2022/09/03 09:58:27;;;;;;;3.72;2.90;;;;;;;;;;4390686;32;20485;-94
2022/09/03 10:01:03;;;;;;;5.50;3.28;;;;;;;;;;4391209;32;20682;-90
2022/09/03 10:03:35;;;;;;;4.22;3.62;;;;;;;;;;4390751;32;20653;-90
2022/09/03 10:09:07;;;;;;;6.47;3.42;;;;;;;;;;4378393;32;20245;-91
2022/09/03 10:11:39;;;;;;;5.82;3.60;;;;;;;;;;4389679;32;20324;-89
2022/09/03 10:14:15;;;;;;;6.95;4.07;;;;;;;;;;4391213;32;20615;-94
2022/09/03 10:16:48;;;;;;;3.78;3.22;;;;;;;;;;4390273;32;20558;-92
2022/09/03 10:19:19;;;;;;;10.63;4.18;;;;;;;;;;4378155;32;20559;-87
2022/09/03 10:21:54;;;;;;;11.63;4.37;;;;;;;;;;4390168;32;20221;-92
2022/09/03 10:24:47;;;;;;;5.50;4.22;;;;;;;;;;4391847;32;20636;-90
2022/09/03 10:27:17;;;;;;;12.50;3.95;;;;;;;;;;4390337;32;20662;-92
2022/09/03 10:29:45;;;;;;;3.75;3.10;;;;;;;;;;4390460;32;20599;-93
2022/09/03 10:32:33;;;;;;;7.25;3.58;;;;;;;;;;4391222;32;20639;-89
2022/09/03 10:35:11;;;;;;;6.65;4.55;;;;;;;;;;4390997;32;20598;-86
2022/09/03 10:37:43;;;;;;;6.20;3.55;;;;;;;;;;4392802;32;20620;-89
2022/09/03 10:40:29;;;;;;;3.95;3.35;;;;;;;;;;4392632;32;20529;-91
2022/09/03 10:43:14;;;;;;;5.87;2.75;;;;;;;;;;4393645;32;20519;-89
2022/09/03 10:45:52;;;;;;;4.32;3.45;;;;;;;;;;4392698;32;20589;-87
2022/09/03 10:48:37;;;;;;;6.22;3.33;;;;;;;;;;4393064;32;20246;-87
2022/09/03 10:51:07;;;;;;;4.07;2.85;;;;;;;;;;4393955;32;20504;-87
2022/09/03 10:53:48;;;;;;;4.95;2.95;;;;;;;;;;4394088;32;20670;-88
2022/09/03 10:56:22;;;;;;;3.28;2.55;;;;;;;;;;4405485;32;20193;-87
2022/09/03 10:59:03;;;;;;;4.93;3.62;;;;;;;;;;4408208;32;20261;-87
2022/09/03 11:17:10;;;;;;;10.20;3.00;;;;;;;;;;2892806;30;20245;-96
2022/09/03 11:19:49;;;;;;;4.28;2.97;;;;;;;;;;4395102;32;20324;-92
2022/09/03 11:22:19;;;;;;;3.67;2.92;;;;;;;;;;4393751;32;20703;-92
2022/09/03 11:24:53;;;;;;;4.60;2.97;;;;;;;;;;4393541;32;20260;-90
2022/09/03 11:27:33;;;;;;;4.68;3.12;;;;;;;;;;4393921;32;20636;-89
2022/09/03 11:30:05;;;;;;;4.25;3.00;;;;;;;;;;4396492;32;20297;-88
2022/09/03 11:32:48;;;;;;;6.72;3.50;;;;;;;;;;4394897;32;20543;-90
2022/09/03 11:35:30;;;;;;;4.70;3.33;;;;;;;;;;4393154;32;20558;-90
2022/09/03 11:38:03;;;;;;;7.55;3.37;;;;;;;;;;4395743;32;20273;-88
2022/09/03 11:40:34;;;;;;;4.25;3.22;;;;;;;;;;4394714;32;20675;-89
2022/09/03 11:43:14;;;;;;;4.97;2.90;;;;;;;;;;4394138;32;20644;-89
2022/09/03 11:45:42;;;;;;;5.60;2.60;;;;;;;;;;4392725;32;20225;-88
2022/09/03 11:48:36;;;;;;;3.87;3.10;;;;;;;;;;4393294;32;20519;-88
2022/09/03 11:51:04;;;;;;;3.40;2.58;;;;;;;;;;4392211;32;20619;-85
2022/09/03 11:53:36;;;;;;;4.57;2.65;;;;;;;;;;4391783;32;20244;-87
2022/09/03 11:56:18;;;;;;;8.32;7.45;;;;;;;;;;4392617;32;20236;-86
2022/09/03 11:58:46;;;;;;;5.30;3.83;;;;;;;;;;4393200;32;20261;-84
2022/09/03 12:01:16;;;;;;;5.18;2.97;;;;;;;;;;4393270;32;20536;-85
2022/09/03 12:03:49;;;;;;;4.68;3.25;;;;;;;;;;4393822;32;20562;-85
2022/09/03 12:06:41;;;;;;;9.40;3.55;;;;;;;;;;4393785;32;20331;-86
2022/09/03 12:09:28;;;;;;;4.20;2.97;;;;;;;;;;4392922;32;20534;-86
2022/09/03 12:12:07;;;;;;;3.03;2.28;;;;;;;;;;4393052;32;20651;-86
2022/09/03 12:14:46;;;;;;;2.80;2.45;;;;;;;;;;4392981;32;20578;-85
2022/09/03 12:17:24;;;;;;;10.45;3.33;;;;;;;;;;4393271;32;20637;-85
2022/09/03 12:19:54;;;;;;;4.18;2.50;;;;;;;;;;4393349;32;20303;-85
2022/09/03 12:22:23;;;;;;;3.85;2.85;;;;;;;;;;4393153;32;20547;-85
2022/09/03 12:24:51;;;;;;;3.67;2.75;;;;;;;;;;4393706;32;20295;-85
2022/09/03 12:27:23;;;;;;;4.03;2.50;;;;;;;;;;4393061;32;20378;-86
2022/09/03 12:29:59;;;;;;;11.15;2.83;;;;;;;;;;4392088;32;20228;-85
2022/09/03 12:32:30;;;;;;;12.55;3.20;;;;;;;;;;4392781;32;20607;-86
2022/09/03 12:35:11;;;;;;;7.18;3.12;;;;;;;;;;4392417;32;20543;-85
2022/09/03 12:37:41;;;;;;;6.82;3.10;;;;;;;;;;4392558;32;20265;-85
2022/09/03 12:40:20;;;;;;;5.80;4.05;;;;;;;;;;4392708;32;20346;-86
2022/09/03 12:42:48;;;;;;;5.87;3.53;;;;;;;;;;4391385;32;20536;-86
2022/09/03 12:45:18;;;;;;;3.87;3.15;;;;;;;;;;4390579;32;20677;-87
2022/09/03 12:47:46;;;;;;;6.37;3.03;;;;;;;;;;4391051;32;20592;-87
2022/09/03 12:50:20;;;;;;;4.47;3.05;;;;;;;;;;4390706;32;20610;-87
2022/09/03 12:52:50;;;;;;;7.18;2.72;;;;;;;;;;4390808;32;20547;-87
2022/09/03 12:55:28;;;;;;;7.97;3.33;;;;;;;;;;4390658;32;20296;-87
2022/09/03 12:58:02;;;;;;;3.33;2.45;;;;;;;;;;4377296;32;20566;-86
2022/09/03 13:00:32;;;;;;;3.03;2.15;;;;;;;;;;4390271;32;20602;-86
2022/09/03 13:03:03;;;;;;;1.60;1.50;;;;;;;;;;4390239;32;20604;-87
2022/09/03 13:05:35;;;;;;;2.42;2.10;;;;;;;;;;4390122;32;20626;-86
2022/09/03 13:08:06;;;;;;;3.10;2.72;;;;;;;;;;4390248;32;20344;-84
2022/09/03 13:10:36;;;;;;;3.05;2.10;;;;;;;;;;4390571;32;20574;-85
2022/09/03 13:13:17;;;;;;;6.25;3.70;;;;;;;;;;4390794;32;20315;-86
2022/09/03 13:15:59;;;;;;;3.05;2.40;;;;;;;;;;4390702;32;20586;-87
2022/09/03 13:18:32;;;;;;;7.37;2.05;;;;;;;;;;4390596;32;20595;-86
2022/09/03 13:21:14;;;;;;;3.95;2.33;;;;;;;;;;4390615;32;20264;-86
2022/09/03 13:24:09;;;;;;;3.05;2.50;;;;;;;;;;4390829;32;21007;-86
2022/09/03 13:26:48;;;;;;;3.92;2.60;;;;;;;;;;4390562;32;20543;-85
2022/09/03 13:29:48;;;;;;;4.78;3.47;;;;;;;;;;4390817;32;20556;-87
2022/09/03 13:32:29;;;;;;;4.80;3.47;;;;;;;;;;4381284;32;20268;-86
2022/09/03 13:35:02;;;;;;;4.20;2.53;;;;;;;;;;4389892;32;20535;-87
2022/09/03 13:37:38;;;;;;;10.70;2.83;;;;;;;;;;4390004;32;20303;-86
2022/09/03 13:40:17;;;;;;;7.70;3.03;;;;;;;;;;4389245;32;20637;-86
2022/09/03 13:42:51;;;;;;;5.18;3.65;;;;;;;;;;4389368;32;20263;-86
2022/09/03 13:45:28;;;;;;;8.20;4.62;;;;;;;;;;4389174;32;20229;-86
2022/09/03 13:50:49;;;;;;;6.35;3.37;;;;;;;;;;4363728;32;20222;-86
2022/09/03 13:53:24;;;;;;;13.30;4.90;;;;;;;;;;4389645;32;20552;-86
2022/09/03 13:55:55;;;;;;;4.93;3.12;;;;;;;;;;4389586;32;20535;-87
2022/09/03 13:58:30;;;;;;;4.45;2.80;;;;;;;;;;4389857;32;20288;-86
2022/09/03 14:01:12;;;;;;;5.55;2.80;;;;;;;;;;4389337;32;20307;-86
2022/09/03 14:03:49;;;;;;;2.58;2.08;;;;;;;;;;4389472;32;20695;-87
2022/09/03 14:06:26;;;;;;;5.62;2.30;;;;;;;;;;4389151;32;20535;-86
2022/09/03 14:09:06;;;;;;;5.22;2.20;;;;;;;;;;4388977;32;20273;-87
2022/09/03 14:11:45;;;;;;;3.03;2.45;;;;;;;;;;4388823;32;20300;-87
2022/09/03 14:14:22;;;;;;;3.72;1.98;;;;;;;;;;4389035;32;20603;-87
2022/09/03 14:16:56;;;;;;;2.53;2.22;;;;;;;;;;4389116;32;20505;-87
2022/09/03 14:19:36;;;;;;;3.08;1.90;;;;;;;;;;4389789;32;20507;-86
2022/09/03 14:22:11;;;;;;;5.68;2.67;;;;;;;;;;4389514;32;20539;-84
2022/09/03 14:24:48;;;;;;;2.65;2.03;;;;;;;;;;4388799;32;20503;-85
2022/09/03 14:27:24;;;;;;;4.25;2.62;;;;;;;;;;4389244;32;20213;-85
2022/09/03 14:29:58;;;;;;;5.10;2.97;;;;;;;;;;4394930;32;20528;-85
2022/09/03 14:32:32;;;;;;;3.25;2.72;;;;;;;;;;4390978;32;20202;-87
2022/09/03 14:35:19;;;;;;;3.80;2.35;;;;;;;;;;4393938;32;20217;-88
2022/09/03 14:38:26;;;;;;;5.37;2.35;;;;;;;;;;4394739;32;20257;-87
2022/09/03 14:41:06;;;;;;;7.50;3.58;;;;;;;;;;4370430;32;20658;-87
2022/09/03 14:44:07;;;;;;;8.95;4.70;;;;;;;;;;4388557;32;20558;-86
2022/09/03 14:46:47;;;;;;;3.67;2.33;;;;;;;;;;4388357;32;20698;-87
2022/09/03 14:49:27;;;;;;;3.53;3.20;;;;;;;;;;4389170;32;20265;-86
2022/09/03 14:52:23;;;;;;;4.07;2.90;;;;;;;;;;4375751;32;20527;-87
2022/09/03 14:55:23;;;;;;;3.17;2.55;;;;;;;;;;4375200;32;20713;-86
2022/09/03 14:58:10;;;;;;;9.02;2.40;;;;;;;;;;4381928;32;20300;-85
2022/09/03 15:00:52;;;;;;;3.33;2.47;;;;;;;;;;4388422;32;20524;-85
2022/09/03 15:03:32;;;;;;;2.95;2.47;;;;;;;;;;4388654;32;20621;-85
2022/09/03 15:06:11;;;;;;;3.85;2.70;;;;;;;;;;4388462;32;20734;-85
2022/09/03 15:09:05;;;;;;;7.82;2.58;;;;;;;;;;4388673;32;20510;-85
2022/09/03 15:11:38;;;;;;;3.33;2.95;;;;;;;;;;4388979;32;20657;-84
2022/09/03 15:14:13;;;;;;;4.87;2.70;;;;;;;;;;4388630;32;20288;-85
2022/09/03 15:16:51;;;;;;;6.15;2.40;;;;;;;;;;4388526;32;20652;-85
2022/09/03 15:19:49;;;;;;;3.50;2.90;;;;;;;;;;4388374;32;20508;-85
2022/09/03 15:22:32;;;;;;;3.00;2.65;;;;;;;;;;4390333;32;20542;-87
2022/09/03 15:25:13;;;;;;;5.05;4.25;;;;;;;;;;4391682;32;20551;-87
2022/09/03 15:28:01;;;;;;;8.32;3.12;;;;;;;;;;4391810;32;20518;-86
2022/09/03 15:30:39;;;;;;;8.90;3.25;;;;;;;;;;4391540;32;20348;-87
2022/09/03 15:33:21;;;;;;;9.52;3.47;;;;;;;;;;4406081;32;20583;-86
2022/09/03 15:36:13;;;;;;;5.93;4.05;;;;;;;;;;4405310;32;20622;-86
2022/09/03 15:41:32;;;;;;;10.35;7.12;;;;;;;;;;2985420;27;20418;-87
2022/09/03 15:44:01;;;;;;;6.57;4.80;;;;;;;;;;4408149;32;20573;-87